Time;durP1;ratioP1;P1;durP2;ratioP2;P2;SDS_P1;SDS_P2;PMS_P1;PMS_P2;Temp;Humidity;BMP_temperature;BMP_pressure;BME280_temperature;BME280_humidity;BME280_pressure;Samples;Min_cycle;Max_cycle;Signal;HPM_P1;HPM_P2
2022/12/26 00:02:13;;;;;;;16.60;8.13;;;9.10;99.90;;;;;;5021913;28;20217;-72
2022/12/26 00:04:39;;;;;;;9.87;6.93;;;9.10;99.90;;;;;;5003546;28;20753;-72
2022/12/26 00:07:04;;;;;;;9.43;6.70;;;9.20;99.90;;;;;;5000368;28;20205;-71
2022/12/26 00:09:32;;;;;;;12.40;7.80;;;9.20;99.90;;;;;;5002754;28;20275;-70
2022/12/26 00:11:57;;;;;;;10.33;7.10;;;9.20;99.90;;;;;;5001071;28;20173;-70
2022/12/26 00:14:23;;;;;;;11.53;6.93;;;9.20;99.90;;;;;;5001287;28;20210;-70
2022/12/26 00:16:49;;;;;;;9.67;6.77;;;9.20;99.90;;;;;;5004433;28;20201;-71
2022/12/26 00:19:14;;;;;;;11.77;7.33;;;9.20;99.90;;;;;;5008143;28;20219;-69
2022/12/26 00:21:40;;;;;;;8.53;6.63;;;9.20;99.90;;;;;;5000864;28;20288;-70
2022/12/26 00:24:09;;;;;;;10.67;7.07;;;9.20;99.90;;;;;;5006333;28;20186;-71
2022/12/26 00:26:35;;;;;;;9.17;6.80;;;9.30;99.90;;;;;;5000980;28;20217;-71
2022/12/26 00:29:02;;;;;;;12.93;6.80;;;9.20;99.90;;;;;;5000916;28;20271;-70
2022/12/26 00:31:31;;;;;;;11.77;6.20;;;9.20;99.90;;;;;;5002795;28;20197;-71
2022/12/26 00:33:57;;;;;;;11.00;6.37;;;9.30;99.90;;;;;;5004985;28;20308;-71
2022/12/26 00:36:26;;;;;;;10.00;6.67;;;9.20;99.90;;;;;;5001858;28;20288;-72
2022/12/26 00:38:52;;;;;;;8.97;6.37;;;9.30;99.90;;;;;;5000694;28;20241;-73
2022/12/26 00:41:19;;;;;;;9.80;6.40;;;9.30;99.90;;;;;;4999886;28;20291;-70
2022/12/26 00:43:45;;;;;;;12.70;7.27;;;9.30;99.90;;;;;;5002295;28;20205;-71
2022/12/26 00:46:11;;;;;;;8.17;6.10;;;9.30;99.90;;;;;;5001872;28;20253;-71
2022/12/26 00:48:37;;;;;;;9.60;6.27;;;9.30;99.90;;;;;;5000594;28;20217;-71
2022/12/26 00:51:03;;;;;;;10.30;6.17;;;9.30;99.90;;;;;;4999465;28;20192;-69
2022/12/26 00:53:29;;;;;;;9.10;6.10;;;9.30;99.90;;;;;;5005261;28;20209;-70
2022/12/26 00:55:55;;;;;;;12.60;6.80;;;9.30;99.90;;;;;;5001554;28;20609;-71
2022/12/26 00:58:21;;;;;;;11.17;6.17;;;9.30;99.90;;;;;;5006019;28;20564;-71
2022/12/26 01:00:47;;;;;;;9.97;6.80;;;9.40;99.90;;;;;;4999331;28;20209;-70
2022/12/26 01:03:14;;;;;;;9.50;6.70;;;9.40;99.90;;;;;;5000176;28;20213;-71
2022/12/26 01:05:41;;;;;;;10.00;5.90;;;9.40;99.90;;;;;;5006160;28;20193;-71
2022/12/26 01:10:44;;;;;;;8.17;5.83;;;9.40;99.90;;;;;;5038997;28;20214;-71
2022/12/26 01:13:10;;;;;;;8.87;5.97;;;9.40;99.90;;;;;;5045704;28;20203;-73
2022/12/26 01:15:36;;;;;;;8.43;5.43;;;9.40;99.90;;;;;;5048923;28;20234;-74
2022/12/26 01:18:02;;;;;;;9.17;5.97;;;9.40;99.90;;;;;;5046449;28;20674;-71
2022/12/26 01:20:27;;;;;;;7.77;6.03;;;9.50;99.90;;;;;;5046284;28;20241;-72
2022/12/26 01:22:54;;;;;;;10.93;6.40;;;9.50;99.90;;;;;;5048355;28;20234;-70
2022/12/26 01:25:20;;;;;;;11.03;6.03;;;9.50;99.90;;;;;;5049123;28;20215;-71
2022/12/26 01:27:45;;;;;;;7.77;5.83;;;9.50;99.90;;;;;;5043006;28;20211;-72
2022/12/26 01:30:11;;;;;;;9.37;5.87;;;9.50;99.90;;;;;;5045313;28;20207;-72
2022/12/26 01:32:37;;;;;;;9.77;5.70;;;9.50;99.90;;;;;;5043625;28;20171;-71
2022/12/26 01:35:03;;;;;;;11.40;6.33;;;9.60;99.90;;;;;;5042009;28;20214;-71
2022/12/26 01:37:29;;;;;;;8.00;5.47;;;9.60;99.90;;;;;;5046642;28;20207;-70
2022/12/26 01:39:54;;;;;;;7.80;6.10;;;9.60;99.90;;;;;;5039540;28;20219;-70
2022/12/26 01:42:24;;;;;;;9.83;5.97;;;9.50;99.90;;;;;;5048919;28;20172;-72
2022/12/26 01:45:21;;;;;;;9.53;5.43;;;9.50;99.90;;;;;;5043731;28;20567;-71
2022/12/26 01:47:57;;;;;;;8.57;5.67;;;9.50;99.90;;;;;;5046661;28;20853;-72
2022/12/26 01:50:28;;;;;;;9.50;5.93;;;9.60;99.90;;;;;;5040050;28;20302;-71
2022/12/26 01:52:58;;;;;;;7.53;5.67;;;9.60;99.90;;;;;;5044562;28;20203;-71
2022/12/26 01:55:26;;;;;;;10.00;5.60;;;9.60;99.90;;;;;;5045738;28;20214;-71
2022/12/26 01:58:01;;;;;;;8.07;5.73;;;9.60;99.90;;;;;;5044186;28;20239;-71
2022/12/26 02:00:27;;;;;;;8.60;5.90;;;9.50;99.90;;;;;;5041162;28;20210;-71
2022/12/26 02:05:38;;;;;;;9.50;5.83;;;9.50;99.90;;;;;;5049479;28;20742;-71
2022/12/26 02:08:07;;;;;;;7.87;5.73;;;9.60;99.90;;;;;;5050289;28;20689;-69
2022/12/26 02:10:38;;;;;;;9.13;5.93;;;9.50;99.90;;;;;;5054454;28;20207;-72
2022/12/26 02:13:04;;;;;;;8.17;5.33;;;9.50;99.90;;;;;;5051666;28;20698;-69
2022/12/26 02:15:30;;;;;;;8.60;5.83;;;9.50;99.90;;;;;;5052394;28;20219;-73
2022/12/26 02:17:56;;;;;;;8.70;6.07;;;9.50;99.90;;;;;;5053217;28;20175;-73
2022/12/26 02:20:28;;;;;;;9.90;5.63;;;9.50;99.90;;;;;;5049073;28;20203;-74
2022/12/26 02:23:02;;;;;;;15.67;6.63;;;9.60;99.90;;;;;;5054060;28;20715;-73
2022/12/26 02:26:08;;;;;;;9.30;5.93;;;9.60;99.90;;;;;;5054331;28;20523;-71
2022/12/26 02:29:01;;;;;;;8.43;5.20;;;9.60;99.90;;;;;;5050512;28;20915;-72
2022/12/26 02:31:36;;;;;;;9.27;5.57;;;9.60;99.90;;;;;;5048790;28;20795;-70
2022/12/26 02:34:32;;;;;;;7.80;5.90;;;9.60;99.90;;;;;;5047054;28;20207;-71
2022/12/26 02:37:03;;;;;;;6.40;5.27;;;9.60;99.90;;;;;;5052989;28;20219;-72
2022/12/26 02:39:35;;;;;;;10.00;5.70;;;9.60;99.90;;;;;;5053089;28;20771;-72
2022/12/26 02:42:09;;;;;;;7.97;5.70;;;9.60;99.90;;;;;;5053347;28;20665;-71
2022/12/26 02:47:56;;;;;;;6.07;5.17;;;9.70;99.90;;;;;;5028944;28;20207;-74
2022/12/26 03:14:28;;;;;;;8.17;5.93;;;9.70;99.90;;;;;;5031828;28;20215;-72
2022/12/26 03:17:19;;;;;;;10.67;5.03;;;9.80;99.90;;;;;;5029761;28;20200;-71
2022/12/26 03:20:00;;;;;;;7.53;5.33;;;9.80;99.90;;;;;;5025056;28;20588;-72
2022/12/26 03:22:44;;;;;;;8.00;5.90;;;9.80;99.90;;;;;;5025597;28;20196;-72
2022/12/26 03:27:59;;;;;;;7.43;5.47;;;9.80;99.90;;;;;;5026566;28;20212;-72
2022/12/26 03:34:16;;;;;;;8.00;5.40;;;9.90;99.90;;;;;;5026426;28;20242;-72
2022/12/26 03:35:55;;;;;;;5.47;4.67;;;9.90;99.90;;;;;;5025299;28;20560;-70
2022/12/26 03:38:34;;;;;;;6.77;5.60;;;9.90;99.90;;;;;;5029234;28;20717;-72
2022/12/26 04:19:23;;;;;;;5.77;4.60;;;10.20;99.90;;;;;;5026609;28;20228;-72
2022/12/26 04:45:14;;;;;;;5.00;4.07;;;10.10;99.90;;;;;;5027680;28;20701;-72
2022/12/26 04:50:10;;;;;;;6.83;5.20;;;10.10;99.90;;;;;;5030726;28;20181;-72
2022/12/26 04:50:25;;;;;;;6.57;4.80;;;10.10;99.90;;;;;;5026470;28;20208;-72
2022/12/26 04:52:57;;;;;;;6.97;4.20;;;10.10;99.90;;;;;;5025892;28;20258;-73
2022/12/26 04:55:26;;;;;;;6.33;4.07;;;10.20;99.90;;;;;;5023780;28;20216;-72
2022/12/26 04:57:52;;;;;;;6.17;4.40;;;10.20;99.90;;;;;;5038875;28;20221;-72
2022/12/26 05:00:18;;;;;;;9.30;4.00;;;10.10;99.90;;;;;;5023398;28;20212;-72
2022/12/26 05:11:10;;;;;;;8.27;5.47;;;10.20;99.90;;;;;;5025509;28;20251;-73
2022/12/26 05:13:36;;;;;;;7.10;4.50;;;10.20;99.90;;;;;;5031127;28;20224;-72
2022/12/26 05:29:44;;;;;;;6.47;4.70;;;10.30;99.90;;;;;;5012802;28;20209;-74
2022/12/26 05:32:10;;;;;;;7.33;4.40;;;10.30;99.90;;;;;;5026975;28;20240;-73
2022/12/26 05:34:35;;;;;;;6.73;4.27;;;10.30;99.90;;;;;;5024748;28;20196;-75
2022/12/26 05:37:01;;;;;;;5.03;4.00;;;10.30;99.90;;;;;;5019671;28;20212;-73
2022/12/26 05:39:27;;;;;;;7.87;4.33;;;10.40;99.90;;;;;;5026849;28;20200;-73
2022/12/26 05:41:52;;;;;;;4.33;3.50;;;10.30;99.90;;;;;;5022382;28;20630;-71
2022/12/26 05:44:18;;;;;;;5.13;3.63;;;10.30;99.90;;;;;;5023234;28;20578;-74
2022/12/26 05:46:45;;;;;;;5.00;3.93;;;10.40;99.90;;;;;;5027740;28;20215;-72
2022/12/26 05:49:11;;;;;;;4.57;3.60;;;10.40;99.90;;;;;;5029223;28;20733;-74
2022/12/26 05:51:37;;;;;;;5.53;3.77;;;10.40;99.90;;;;;;5031322;28;20302;-73
2022/12/26 05:54:03;;;;;;;5.97;3.50;;;10.30;99.90;;;;;;5031872;28;20546;-73
2022/12/26 05:56:29;;;;;;;5.93;4.03;;;10.40;99.90;;;;;;5030041;28;20205;-72
2022/12/26 05:58:56;;;;;;;4.67;3.37;;;10.40;99.90;;;;;;5030683;28;20239;-72
2022/12/26 06:01:22;;;;;;;6.43;3.80;;;10.40;99.90;;;;;;5028366;28;20208;-73
2022/12/26 06:03:50;;;;;;;5.03;4.10;;;10.30;99.90;;;;;;5019757;28;20213;-72
2022/12/26 06:06:16;;;;;;;5.50;3.70;;;10.30;99.90;;;;;;5025804;28;20196;-72
2022/12/26 06:08:43;;;;;;;4.30;3.77;;;10.40;99.90;;;;;;5025398;28;20762;-72
2022/12/26 06:11:11;;;;;;;7.53;3.77;;;10.30;99.90;;;;;;5024799;28;20263;-72
2022/12/26 06:13:38;;;;;;;5.60;3.67;;;10.40;99.90;;;;;;5027058;28;20881;-72
2022/12/26 06:16:05;;;;;;;5.13;4.03;;;10.40;99.90;;;;;;5024919;28;20209;-69
2022/12/26 06:18:31;;;;;;;5.20;3.67;;;10.30;99.90;;;;;;5028585;28;20295;-72
2022/12/26 06:20:57;;;;;;;5.10;3.47;;;10.40;99.90;;;;;;5024914;28;20256;-73
2022/12/26 06:23:23;;;;;;;5.07;3.37;;;10.40;99.90;;;;;;5024556;28;20276;-72
2022/12/26 06:25:56;;;;;;;5.83;3.57;;;10.40;99.90;;;;;;5028469;28;20323;-72
2022/12/26 06:28:23;;;;;;;8.27;4.20;;;10.40;99.90;;;;;;5028955;28;20204;-73
2022/12/26 06:30:49;;;;;;;5.93;3.53;;;10.40;99.90;;;;;;5021884;28;20205;-73
2022/12/26 06:33:15;;;;;;;11.83;4.07;;;10.40;99.90;;;;;;5026822;28;20679;-72
2022/12/26 06:35:41;;;;;;;4.57;3.50;;;10.40;99.90;;;;;;5027324;28;20260;-72
2022/12/26 06:38:06;;;;;;;7.43;3.47;;;10.50;99.90;;;;;;5027741;28;20208;-72
2022/12/26 06:40:32;;;;;;;4.83;3.63;;;10.40;99.90;;;;;;5027577;28;20619;-74
2022/12/26 06:42:57;;;;;;;4.20;3.37;;;10.40;99.90;;;;;;5021145;28;20284;-73
2022/12/26 06:45:23;;;;;;;4.87;3.40;;;10.50;99.90;;;;;;5023844;28;20255;-74
2022/12/26 06:47:49;;;;;;;4.00;3.47;;;10.50;99.90;;;;;;5028548;28;20706;-73
2022/12/26 06:50:14;;;;;;;4.10;3.40;;;10.50;99.90;;;;;;5025425;28;20208;-74
2022/12/26 06:52:40;;;;;;;4.07;3.50;;;10.50;99.90;;;;;;5028613;28;20251;-73
2022/12/26 06:55:06;;;;;;;6.27;3.90;;;10.50;99.90;;;;;;5027279;28;20594;-73
2022/12/26 06:57:31;;;;;;;4.77;3.33;;;10.50;99.90;;;;;;5025003;28;20232;-74
2022/12/26 06:59:57;;;;;;;5.83;3.40;;;10.50;99.90;;;;;;5031412;28;20548;-74
2022/12/26 07:02:23;;;;;;;5.57;3.80;;;10.50;99.90;;;;;;5029855;28;20212;-74
2022/12/26 07:04:48;;;;;;;4.70;3.23;;;10.50;99.90;;;;;;5031488;28;20240;-74
2022/12/26 07:07:14;;;;;;;5.27;3.33;;;10.50;99.90;;;;;;5029622;28;20257;-73
2022/12/26 07:09:39;;;;;;;5.63;4.10;;;10.50;99.90;;;;;;5052618;23;20677;-72
2022/12/26 07:12:05;;;;;;;5.53;3.33;;;10.50;99.90;;;;;;5046835;28;20555;-70
2022/12/26 07:14:31;;;;;;;5.90;3.57;;;10.50;99.90;;;;;;5047143;28;20204;-72
2022/12/26 07:16:56;;;;;;;3.90;3.33;;;10.50;99.90;;;;;;5050216;28;20583;-73
2022/12/26 07:19:22;;;;;;;4.57;3.43;;;10.50;99.90;;;;;;5045391;28;20231;-71
2022/12/26 07:21:47;;;;;;;4.73;3.40;;;10.50;99.90;;;;;;5052889;28;20329;-72
2022/12/26 07:24:15;;;;;;;4.20;3.40;;;10.50;99.90;;;;;;5052584;28;20233;-72
2022/12/26 07:26:42;;;;;;;5.80;3.37;;;10.40;99.90;;;;;;5053030;28;20195;-72
2022/12/26 07:29:09;;;;;;;3.87;3.20;;;10.40;99.90;;;;;;5052220;28;20272;-71
2022/12/26 07:31:35;;;;;;;4.43;3.53;;;10.40;99.90;;;;;;5053407;28;20287;-72
2022/12/26 07:34:01;;;;;;;6.10;3.57;;;10.50;99.90;;;;;;5052354;28;20291;-72
2022/12/26 07:36:27;;;;;;;6.87;3.77;;;10.40;99.90;;;;;;5052439;28;20663;-72
2022/12/26 07:38:52;;;;;;;4.87;3.50;;;10.40;99.90;;;;;;5048081;28;20229;-71
2022/12/26 07:44:02;;;;;;;5.07;3.50;;;10.50;99.90;;;;;;5050558;28;20275;-71
2022/12/26 07:46:29;;;;;;;4.17;3.53;;;10.50;99.90;;;;;;5052268;28;20757;-72
2022/12/26 07:48:54;;;;;;;6.33;3.97;;;10.50;99.90;;;;;;5052013;28;20581;-72
2022/12/26 07:51:21;;;;;;;4.47;3.67;;;10.50;99.90;;;;;;5051534;28;20203;-73
2022/12/26 07:53:47;;;;;;;5.70;4.10;;;10.50;99.90;;;;;;5048910;28;20172;-71
2022/12/26 07:56:13;;;;;;;5.17;4.00;;;10.50;99.90;;;;;;5052054;28;20207;-73
2022/12/26 07:58:38;;;;;;;5.43;3.50;;;10.50;99.90;;;;;;5051609;28;20282;-73
2022/12/26 08:01:05;;;;;;;5.90;3.40;;;10.50;99.90;;;;;;5052244;28;20620;-71
2022/12/26 08:03:32;;;;;;;4.73;3.57;;;10.50;99.90;;;;;;5051600;28;20211;-73
2022/12/26 08:05:58;;;;;;;5.10;3.87;;;10.50;99.90;;;;;;5052444;28;20280;-73
2022/12/26 08:08:24;;;;;;;4.97;3.63;;;10.50;99.90;;;;;;5052076;28;20210;-73
2022/12/26 08:11:01;;;;;;;5.43;3.33;;;10.50;99.90;;;;;;5051078;28;20215;-72
2022/12/26 08:13:28;;;;;;;5.60;3.30;;;10.50;99.90;;;;;;5051908;28;20205;-73
2022/12/26 08:15:54;;;;;;;4.30;3.03;;;10.50;99.90;;;;;;5050314;28;20212;-71
2022/12/26 08:18:20;;;;;;;4.60;3.60;;;10.50;99.90;;;;;;5051661;28;20202;-73
2022/12/26 08:20:45;;;;;;;4.00;3.57;;;10.50;99.90;;;;;;5051462;28;20188;-73
2022/12/26 08:23:11;;;;;;;6.30;3.80;;;10.60;99.90;;;;;;5051451;28;20634;-73
2022/12/26 08:25:37;;;;;;;5.70;3.13;;;10.60;99.90;;;;;;5050632;28;20246;-73
2022/12/26 08:28:02;;;;;;;5.63;2.90;;;10.60;99.90;;;;;;5051595;28;20689;-70
2022/12/26 08:30:28;;;;;;;4.20;3.20;;;10.60;99.90;;;;;;5053061;28;20219;-72
2022/12/26 08:32:54;;;;;;;4.13;2.90;;;10.60;99.90;;;;;;5052056;28;20232;-72
2022/12/26 08:35:19;;;;;;;3.93;2.77;;;10.60;99.90;;;;;;5052380;28;20264;-72
2022/12/26 08:37:46;;;;;;;3.67;2.57;;;10.60;99.90;;;;;;5051891;28;20211;-71
2022/12/26 08:40:12;;;;;;;3.30;2.60;;;10.70;99.90;;;;;;5049260;28;20219;-72
2022/12/26 08:42:38;;;;;;;2.80;2.37;;;10.70;99.90;;;;;;5050161;28;20211;-72
2022/12/26 08:45:04;;;;;;;3.93;3.10;;;10.70;99.90;;;;;;5051478;28;20180;-72
2022/12/26 08:47:29;;;;;;;3.40;2.30;;;10.70;99.90;;;;;;5049960;28;20578;-72
2022/12/26 08:49:55;;;;;;;3.53;2.73;;;10.70;99.90;;;;;;5048944;28;20208;-71
2022/12/26 08:52:20;;;;;;;4.23;2.53;;;10.70;99.90;;;;;;5049875;28;20207;-70
2022/12/26 08:54:46;;;;;;;4.07;2.87;;;10.70;99.90;;;;;;5051071;28;20258;-72
2022/12/26 08:57:11;;;;;;;4.03;2.60;;;10.70;99.90;;;;;;5049838;28;20302;-72
2022/12/26 08:59:37;;;;;;;5.07;2.50;;;10.70;99.90;;;;;;5051142;28;20204;-73
2022/12/26 09:02:03;;;;;;;5.43;2.77;;;10.70;99.90;;;;;;5051248;28;20207;-71
2022/12/26 09:04:28;;;;;;;2.97;2.60;;;10.70;99.90;;;;;;5049558;28;20203;-72
2022/12/26 09:06:54;;;;;;;3.77;2.67;;;10.70;99.90;;;;;;5050641;28;20248;-72
2022/12/26 09:09:19;;;;;;;3.37;2.60;;;10.70;99.90;;;;;;5050650;28;20186;-71
2022/12/26 09:11:45;;;;;;;4.77;3.10;;;10.70;99.90;;;;;;5049873;28;20677;-72
2022/12/26 09:14:11;;;;;;;4.33;2.73;;;10.80;99.90;;;;;;5051315;28;20243;-73
2022/12/26 09:16:45;;;;;;;5.10;3.00;;;10.70;99.90;;;;;;5050590;28;20211;-72
2022/12/26 09:19:13;;;;;;;3.93;2.80;;;10.70;99.90;;;;;;5050600;28;20242;-71
2022/12/26 09:21:39;;;;;;;6.37;3.20;;;10.80;99.90;;;;;;5050623;28;20216;-72
2022/12/26 09:24:09;;;;;;;4.17;3.40;;;10.80;99.90;;;;;;5049621;28;20176;-70
2022/12/26 09:26:35;;;;;;;4.13;2.80;;;10.80;99.90;;;;;;5051270;28;20310;-72
2022/12/26 09:29:01;;;;;;;3.77;3.27;;;10.80;99.90;;;;;;5048964;28;20287;-72
2022/12/26 09:31:29;;;;;;;5.53;3.20;;;10.80;99.90;;;;;;5048265;28;20211;-73
2022/12/26 09:33:55;;;;;;;3.47;2.97;;;10.80;99.90;;;;;;5050371;28;20218;-72
2022/12/26 09:36:26;;;;;;;4.37;3.47;;;10.80;99.90;;;;;;5050522;28;20264;-72
2022/12/26 09:38:54;;;;;;;4.13;3.27;;;10.80;99.90;;;;;;5050951;28;20180;-72
2022/12/26 09:41:57;;;;;;;4.47;3.40;;;10.90;99.90;;;;;;5049554;28;20215;-72
2022/12/26 09:44:44;;;;;;;3.63;2.63;;;10.90;99.90;;;;;;5048967;28;20577;-72
2022/12/26 09:47:19;;;;;;;4.50;2.97;;;10.90;99.90;;;;;;5049176;28;20223;-72
2022/12/26 09:50:09;;;;;;;4.80;2.60;;;11.00;99.90;;;;;;5046020;28;20214;-72
2022/12/26 09:52:58;;;;;;;4.37;2.83;;;11.00;99.90;;;;;;5047270;28;20211;-72
2022/12/26 09:55:37;;;;;;;3.57;2.97;;;11.00;99.90;;;;;;5047331;28;20223;-73
2022/12/26 09:58:24;;;;;;;4.87;3.20;;;11.00;99.90;;;;;;5050503;28;20215;-71
2022/12/26 10:01:02;;;;;;;5.50;2.80;;;11.00;99.90;;;;;;5052263;28;20619;-72
2022/12/26 10:03:36;;;;;;;4.17;2.97;;;11.10;99.90;;;;;;5049870;28;20199;-73
2022/12/26 10:06:16;;;;;;;4.53;3.30;;;11.10;99.90;;;;;;5048333;28;20207;-72
2022/12/26 10:08:42;;;;;;;3.40;2.97;;;11.10;99.90;;;;;;5052132;28;20233;-72
2022/12/26 10:11:21;;;;;;;3.43;3.10;;;11.10;99.90;;;;;;5049187;28;20230;-72
2022/12/26 10:14:02;;;;;;;6.37;3.30;;;11.10;99.90;;;;;;5051246;28;20218;-73
2022/12/26 10:16:46;;;;;;;3.67;2.70;;;11.10;99.90;;;;;;5047018;28;20207;-73
2022/12/26 10:19:43;;;;;;;6.20;3.17;;;11.10;99.90;;;;;;5050133;28;20219;-71
2022/12/26 10:22:20;;;;;;;3.63;2.67;;;11.20;99.90;;;;;;5050750;28;20207;-72
2022/12/26 10:24:48;;;;;;;4.77;3.07;;;11.20;99.90;;;;;;5050891;28;20255;-72
2022/12/26 10:27:17;;;;;;;3.77;2.70;;;11.20;99.90;;;;;;5054450;28;20207;-72
2022/12/26 10:29:59;;;;;;;11.47;2.93;;;11.20;99.90;;;;;;5050138;28;20252;-72
2022/12/26 10:32:30;;;;;;;3.30;2.50;;;11.10;99.90;;;;;;5054014;28;20212;-72
2022/12/26 10:34:58;;;;;;;4.97;2.43;;;11.10;99.90;;;;;;5050242;28;20611;-72
2022/12/26 10:37:40;;;;;;;3.97;2.80;;;11.10;99.90;;;;;;5054485;28;20203;-72
2022/12/26 10:40:19;;;;;;;4.10;3.10;;;11.10;99.90;;;;;;5045963;28;20276;-70
2022/12/26 10:42:58;;;;;;;3.03;2.37;;;11.00;99.90;;;;;;5049779;28;20218;-72
2022/12/26 10:46:02;;;;;;;3.50;2.27;;;11.00;99.90;;;;;;5051334;28;20676;-72
2022/12/26 10:48:28;;;;;;;2.97;1.97;;;11.00;99.90;;;;;;5027328;28;20219;-72
2022/12/26 10:50:55;;;;;;;5.67;2.73;;;11.00;99.90;;;;;;5052735;28;20214;-70
2022/12/26 10:53:20;;;;;;;4.33;2.30;;;11.00;99.90;;;;;;5053633;28;20207;-72
2022/12/26 10:55:46;;;;;;;3.77;2.40;;;11.00;99.90;;;;;;5053323;28;20733;-73
2022/12/26 10:58:14;;;;;;;2.70;2.20;;;10.90;99.90;;;;;;5053011;28;20211;-73
2022/12/26 11:00:40;;;;;;;2.23;2.00;;;10.90;99.90;;;;;;5054690;28;20717;-73
2022/12/26 11:03:15;;;;;;;2.30;2.07;;;10.90;99.90;;;;;;5053839;28;20358;-72
2022/12/26 11:05:44;;;;;;;3.07;2.30;;;10.90;99.90;;;;;;5049246;28;20595;-73
2022/12/26 11:08:19;;;;;;;2.87;2.57;;;10.90;99.90;;;;;;5051661;28;20596;-73
2022/12/26 11:11:08;;;;;;;3.37;2.60;;;10.90;99.90;;;;;;5048870;28;20211;-73
2022/12/26 11:13:47;;;;;;;3.23;2.00;;;10.90;99.90;;;;;;5050206;28;20223;-74
2022/12/26 11:16:28;;;;;;;2.93;2.00;;;10.80;99.90;;;;;;5052540;28;20244;-73
2022/12/26 11:18:54;;;;;;;4.47;3.00;;;10.80;99.90;;;;;;5051591;28;20203;-71
2022/12/26 11:21:24;;;;;;;4.33;3.67;;;10.80;99.90;;;;;;5051921;28;20518;-73
2022/12/26 11:23:52;;;;;;;3.80;2.33;;;10.80;99.90;;;;;;5053167;28;20172;-73
2022/12/26 11:26:26;;;;;;;4.83;2.63;;;10.80;99.90;;;;;;5049537;28;20222;-73
2022/12/26 11:29:12;;;;;;;2.77;2.37;;;10.80;99.90;;;;;;5049178;28;20252;-73
2022/12/26 11:31:41;;;;;;;4.77;3.23;;;10.80;99.90;;;;;;5050311;28;20211;-73
2022/12/26 11:34:10;;;;;;;4.10;2.53;;;10.70;99.90;;;;;;5051275;28;20250;-73
2022/12/26 11:36:39;;;;;;;2.90;2.07;;;10.70;99.90;;;;;;5051326;28;20687;-73
2022/12/26 11:39:19;;;;;;;3.10;2.57;;;10.70;99.90;;;;;;5051162;28;20168;-71
2022/12/26 11:41:47;;;;;;;2.73;2.10;;;10.70;99.90;;;;;;5052679;28;20204;-73
2022/12/26 11:44:16;;;;;;;2.80;2.20;;;10.70;99.90;;;;;;5051563;28;20204;-73
2022/12/26 11:46:44;;;;;;;6.27;2.60;;;10.70;99.90;;;;;;5052202;28;20253;-73
2022/12/26 11:49:26;;;;;;;4.13;2.63;;;10.70;99.90;;;;;;5050335;28;20215;-70
2022/12/26 11:51:53;;;;;;;4.03;2.70;;;10.70;99.90;;;;;;5050226;28;20212;-72
2022/12/26 11:54:20;;;;;;;3.57;3.00;;;10.70;99.90;;;;;;5051220;28;20250;-72
2022/12/26 11:56:47;;;;;;;3.53;2.37;;;10.80;99.90;;;;;;5049376;28;20222;-73
2022/12/26 11:59:19;;;;;;;2.93;2.53;;;10.80;99.90;;;;;;5051717;28;20226;-72
2022/12/26 12:01:45;;;;;;;2.97;2.37;;;10.80;99.90;;;;;;5054676;28;20238;-72
2022/12/26 12:04:11;;;;;;;4.83;2.90;;;10.80;99.90;;;;;;5052060;28;20239;-72
2022/12/26 12:06:45;;;;;;;2.67;2.43;;;10.90;99.90;;;;;;5052217;28;20243;-72
2022/12/26 12:09:25;;;;;;;2.53;2.33;;;10.90;99.90;;;;;;5050058;28;20183;-72
2022/12/26 12:12:16;;;;;;;3.67;2.30;;;10.90;99.90;;;;;;5050328;28;20670;-73
2022/12/26 12:15:21;;;;;;;3.27;2.50;;;10.90;99.90;;;;;;5050567;28;20212;-71
2022/12/26 12:18:05;;;;;;;3.60;2.60;;;10.90;99.90;;;;;;5048888;28;20261;-73
2022/12/26 12:21:04;;;;;;;3.13;2.63;;;10.80;99.90;;;;;;5047193;28;20262;-72
2022/12/26 12:23:52;;;;;;;4.47;2.70;;;10.80;99.90;;;;;;5048553;28;20277;-73
2022/12/26 12:26:28;;;;;;;4.30;3.13;;;10.80;99.90;;;;;;5049609;28;20852;-73
2022/12/26 12:29:13;;;;;;;6.27;3.03;;;10.80;99.90;;;;;;5048397;28;20207;-73
2022/12/26 12:31:49;;;;;;;3.77;3.00;;;10.70;99.90;;;;;;5052627;28;20211;-71
2022/12/26 12:34:20;;;;;;;3.40;2.80;;;10.70;99.90;;;;;;5050211;28;20203;-73
2022/12/26 12:36:58;;;;;;;5.30;3.70;;;10.70;99.90;;;;;;5051525;28;20218;-73
2022/12/26 12:40:01;;;;;;;5.40;3.37;;;10.70;99.90;;;;;;5047675;28;20186;-72
2022/12/26 12:42:54;;;;;;;3.50;3.00;;;10.70;99.90;;;;;;5048204;28;20646;-73
2022/12/26 12:45:25;;;;;;;4.83;3.30;;;10.70;99.90;;;;;;5048519;28;20608;-72
2022/12/26 12:48:36;;;;;;;4.43;3.00;;;10.70;99.90;;;;;;5050505;28;20195;-73
2022/12/26 12:51:28;;;;;;;4.43;3.10;;;10.70;99.90;;;;;;5049121;28;20258;-72
2022/12/26 12:54:02;;;;;;;3.30;2.63;;;10.80;99.90;;;;;;5050503;28;20196;-71
2022/12/26 12:56:28;;;;;;;5.37;3.23;;;10.80;99.90;;;;;;5048225;28;20222;-73
2022/12/26 12:59:12;;;;;;;6.27;3.00;;;10.90;99.90;;;;;;5049648;28;20207;-73
2022/12/26 13:01:43;;;;;;;3.40;3.03;;;10.90;99.90;;;;;;5050657;28;20634;-73
2022/12/26 13:04:23;;;;;;;5.33;3.00;;;10.90;99.90;;;;;;5050970;28;20290;-72
2022/12/26 13:06:55;;;;;;;5.27;3.00;;;10.90;99.90;;;;;;5049043;28;20246;-73
2022/12/26 13:09:37;;;;;;;3.43;2.57;;;10.90;99.90;;;;;;5049948;28;20202;-73
2022/12/26 13:12:10;;;;;;;5.87;3.23;;;10.90;99.90;;;;;;5051126;28;20245;-73
2022/12/26 13:15:07;;;;;;;4.00;3.00;;;10.90;99.90;;;;;;5050898;23;20611;-74
2022/12/26 13:17:54;;;;;;;3.90;2.90;;;10.90;99.90;;;;;;5021672;28;20217;-74
2022/12/26 13:20:22;;;;;;;6.37;3.40;;;10.80;99.90;;;;;;5025612;28;20255;-74
2022/12/26 13:26:24;;;;;;;3.20;2.67;;;10.80;99.90;;;;;;5006240;28;20219;-74
2022/12/26 13:29:24;;;;;;;4.60;3.33;;;10.70;99.90;;;;;;5004541;28;20201;-74
2022/12/26 13:31:49;;;;;;;5.03;3.13;;;10.70;99.90;;;;;;5007521;28;20232;-74
2022/12/26 13:34:17;;;;;;;3.43;2.73;;;10.70;99.90;;;;;;5003573;28;20240;-74
2022/12/26 13:36:55;;;;;;;4.13;3.10;;;10.70;99.90;;;;;;5006898;28;20213;-74
2022/12/26 13:39:31;;;;;;;3.23;2.70;;;10.70;99.90;;;;;;5000391;28;20194;-74
2022/12/26 13:45:34;;;;;;;4.33;3.40;;;10.60;99.90;;;;;;5007607;28;20599;-74
2022/12/26 13:48:02;;;;;;;4.27;3.37;;;10.60;99.90;;;;;;5025854;28;20260;-74
2022/12/26 13:51:04;;;;;;;5.80;3.50;;;10.60;99.90;;;;;;5005924;28;20211;-74
2022/12/26 13:53:33;;;;;;;4.10;3.33;;;10.60;99.90;;;;;;4969156;28;20202;-74
2022/12/26 13:56:21;;;;;;;5.87;3.60;;;10.60;99.90;;;;;;4999347;28;20583;-74
2022/12/26 13:59:06;;;;;;;4.40;3.27;;;10.50;99.90;;;;;;4996281;28;20561;-75
2022/12/26 14:01:34;;;;;;;3.90;3.20;;;10.50;99.90;;;;;;5005853;28;20208;-75
2022/12/26 14:04:16;;;;;;;5.07;3.50;;;10.50;99.90;;;;;;5001910;28;20699;-75
2022/12/26 14:07:07;;;;;;;4.83;3.13;;;10.50;99.90;;;;;;5007421;28;20266;-75
2022/12/26 14:09:38;;;;;;;5.07;3.50;;;10.50;99.90;;;;;;5003203;28;20209;-75
2022/12/26 14:12:39;;;;;;;4.43;3.20;;;10.50;99.90;;;;;;5006004;28;20174;-74
2022/12/26 14:15:31;;;;;;;5.63;3.30;;;10.50;99.90;;;;;;4997386;28;20229;-73
2022/12/26 14:18:01;;;;;;;6.00;4.00;;;10.50;99.90;;;;;;4996418;28;20501;-75
2022/12/26 14:20:55;;;;;;;5.73;3.80;;;10.50;99.90;;;;;;5006110;28;20216;-75
2022/12/26 14:23:29;;;;;;;6.80;4.77;;;10.50;99.90;;;;;;5003912;28;20205;-75
2022/12/26 14:26:22;;;;;;;4.57;3.63;;;10.40;99.90;;;;;;5006068;28;20243;-76
2022/12/26 14:29:26;;;;;;;6.77;4.47;;;10.40;99.90;;;;;;5004704;28;20208;-72
2022/12/26 14:32:26;;;;;;;8.20;4.47;;;10.40;99.90;;;;;;5005869;28;20224;-76
2022/12/26 14:35:49;;;;;;;6.37;4.63;;;10.40;99.90;;;;;;5002937;28;20213;-75
2022/12/26 14:38:36;;;;;;;4.60;3.90;;;10.30;99.90;;;;;;4911181;29;20319;-75
2022/12/26 14:44:18;;;;;;;4.03;3.53;;;10.30;99.90;;;;;;4986722;28;20224;-75
2022/12/26 14:46:47;;;;;;;7.10;3.70;;;10.30;99.90;;;;;;5006984;28;20295;-75
2022/12/26 14:49:30;;;;;;;4.83;3.83;;;10.30;99.90;;;;;;5002494;28;20221;-76
2022/12/26 14:52:24;;;;;;;6.17;3.93;;;10.30;99.90;;;;;;5006310;28;20207;-75
2022/12/26 14:54:54;;;;;;;5.33;3.60;;;10.30;99.90;;;;;;5003408;28;20213;-75
2022/12/26 14:57:47;;;;;;;4.83;3.60;;;10.30;99.90;;;;;;5002084;28;20173;-75
2022/12/26 15:00:26;;;;;;;5.23;3.43;;;10.30;99.90;;;;;;5002932;28;20220;-75
2022/12/26 15:03:12;;;;;;;3.67;3.23;;;10.30;99.90;;;;;;5001323;28;20170;-75
2022/12/26 15:05:42;;;;;;;4.10;3.13;;;10.40;99.90;;;;;;5007856;28;20271;-75
2022/12/26 15:08:30;;;;;;;4.83;3.43;;;10.40;99.90;;;;;;5017455;28;20708;-75
2022/12/26 15:11:26;;;;;;;4.70;3.40;;;10.40;99.90;;;;;;5007990;28;20196;-72
2022/12/26 15:13:58;;;;;;;4.93;3.40;;;10.40;99.90;;;;;;4967981;28;20217;-75
2022/12/26 15:16:42;;;;;;;3.73;2.83;;;10.40;99.90;;;;;;5006251;28;20211;-75
2022/12/26 15:19:20;;;;;;;4.53;3.47;;;10.40;99.90;;;;;;5008416;28;20301;-74
2022/12/26 15:21:57;;;;;;;3.97;3.07;;;10.40;99.90;;;;;;5010649;28;20201;-75
2022/12/26 15:24:42;;;;;;;5.60;3.27;;;10.40;99.90;;;;;;5005138;28;20224;-75
2022/12/26 15:27:41;;;;;;;4.17;3.40;;;10.40;99.90;;;;;;5007280;28;20212;-75
2022/12/26 15:30:13;;;;;;;5.43;3.20;;;10.40;99.90;;;;;;5020317;28;20240;-74
2022/12/26 15:32:48;;;;;;;4.13;3.37;;;10.40;99.90;;;;;;5008591;28;20201;-75